Terminal Aerodrome Forecast
Issued by NWS Albany, NY

Home | Current Version | Previous Version | Text Only | Print | Product List | Glossary On
Versions: 1 2 3 4 5 6 7 8 9 10 11 12 13 14 15 16 17 18 19 20 21 22 23 24
717
FTUS41 KALY 090550 CCA
TAFALB
TAF COR
KALB 090550Z 0906/1006 27010G17KT P6SM VCSH BKN040
     FM091000 29013G20KT P6SM VCSH BKN045
     FM091500 30016G23KT P6SM VCSH BKN050
     FM092100 31009KT P6SM BKN025=

USA.gov is the U.S. government's official web portal to all federal, state and local government web resources and services.